Terminal Aerodrome Forecast
Issued by NWS Twin Cities, MN

Home | Current Version | Previous Version | Graphics & Text | Print | Product List | Glossary On
Versions: 1 2 3 4 5 6 7 8 9 10 11 12 13 14 15 16
000
FTUS43 KMPX 241100
TAFEAU
TAF
KEAU 241129Z 2412/2512 VRB02KT P6SM BKN070
     FM241600 17007KT P6SM SCT070 SCT250
     FM250300 15005KT P6SM BKN080=

USA.gov is the U.S. government's official web portal to all federal, state and local government web resources and services.